»·PEaware :: N946S KJTC-KIGM

N946S :: KJTC-KIGM

FLIGHT INFORMATION

Flight Status: Arrived
Operator: Privately registered:
United States
More flights under this callsign
Pilot: Ethan S. (29221)
Aircraft: SOCATA TBM-900
(TBM9)
More flights by this aircraft type
Origin: KJTC Springerville Municipal
United States
Destination: KIGM Kingman
United States
More flights between these airports :: More routes between these airports
Route: +DRK V105 BEYMI
File this flight plan on PilotEdge
Remarks:
Altitude:
(Current/Filed)
26,000ft
Speed:
(Current/Filed)
320kts
Departed: 05-Oct-20 06:49 PM
Arrived: 05-Oct-20 07:47 PM
Distance/Time
Traveled:
238nm/0:57
Distance/Time
To Go:
Arrived

Flight Plot

Page will automatically refresh every two minutes.

Flight plan parsing failed; only flown route is shown


Map Options




Map Legend


Flown Route
Filed Route
Departure Airport
Arrival Airport
Navaid (VOR, NDB)
Fix

Horizontal Profiles

Position Reports

Time Latitude Longitude Heading Altitude Ground
Speed
05-Oct-20 18:44 34.131703 -109.307609 339 7029ft 0kts
05-Oct-20 18:45 34.132945 -109.306975 44 7028ft 8kts
05-Oct-20 18:46 34.135558 -109.303962 43 7016ft 19kts
05-Oct-20 18:47 34.138438 -109.301781 224 7005ft 9kts
05-Oct-20 18:48 34.120652 -109.323399 241 7789ft 145kts
05-Oct-20 18:49 34.131860 -109.369219 281 10579ft 138kts
05-Oct-20 18:50 34.140904 -109.414548 284 12952ft 138kts
05-Oct-20 18:51 34.150576 -109.463335 284 15601ft 147kts
05-Oct-20 18:52 34.163264 -109.528051 283 16013ft 219kts
05-Oct-20 18:53 34.175167 -109.588860 284 19462ft 156kts
05-Oct-20 18:54 34.185622 -109.642354 284 22483ft 162kts
05-Oct-20 18:55 34.199162 -109.712039 283 23007ft 251kts
05-Oct-20 18:56 34.216913 -109.803824 283 22972ft 279kts
05-Oct-20 18:57 34.235485 -109.899995 283 22964ft 282kts
05-Oct-20 18:58 34.253936 -109.995990 283 22962ft 281kts
05-Oct-20 18:59 34.271357 -110.087043 283 24805ft 231kts
05-Oct-20 19:00 34.285985 -110.163632 283 26365ft 253kts
05-Oct-20 19:01 34.303822 -110.257763 283 26325ft 283kts
05-Oct-20 19:02 34.322924 -110.358959 283 26307ft 290kts
05-Oct-20 19:03 34.342108 -110.461004 283 26300ft 292kts
05-Oct-20 19:04 34.361320 -110.563713 283 26300ft 292kts
05-Oct-20 19:05 34.380275 -110.665548 283 26301ft 292kts
05-Oct-20 19:06 34.398915 -110.766183 283 26289ft 293kts
05-Oct-20 19:07 34.417473 -110.866846 283 26273ft 293kts
05-Oct-20 19:08 34.435967 -110.967609 282 26267ft 293kts
05-Oct-20 19:09 34.454415 -111.068682 282 26270ft 294kts
05-Oct-20 19:10 34.473002 -111.171074 282 26274ft 295kts
05-Oct-20 19:11 34.491316 -111.272426 282 26273ft 295kts
05-Oct-20 19:12 34.509759 -111.375004 282 26272ft 295kts
05-Oct-20 19:13 34.528324 -111.478834 282 25532ft 312kts
05-Oct-20 19:14 34.547800 -111.588321 282 24290ft 317kts
05-Oct-20 19:15 34.565751 -111.689670 281 24222ft 274kts
05-Oct-20 19:16 34.582053 -111.782183 281 24227ft 264kts
05-Oct-20 19:17 34.597853 -111.872304 281 24230ft 261kts
05-Oct-20 19:18 34.613547 -111.962237 281 24237ft 260kts
05-Oct-20 19:19 34.629155 -112.052106 281 24241ft 260kts
05-Oct-20 19:20 34.644802 -112.142594 281 24244ft 260kts
05-Oct-20 19:21 34.660200 -112.232055 281 24248ft 260kts
05-Oct-20 19:22 34.675633 -112.322155 281 24254ft 260kts
05-Oct-20 19:23 34.691048 -112.412567 281 24254ft 260kts
05-Oct-20 19:24 34.713541 -112.500321 303 24269ft 260kts
05-Oct-20 19:25 34.756320 -112.576268 303 24254ft 261kts
05-Oct-20 19:26 34.799387 -112.653265 302 24254ft 261kts
05-Oct-20 19:27 34.842197 -112.729978 302 24256ft 261kts
05-Oct-20 19:28 34.886409 -112.809403 302 23492ft 278kts
05-Oct-20 19:29 34.933894 -112.894873 302 22136ft 288kts
05-Oct-20 19:30 34.981714 -112.981287 302 20779ft 293kts
05-Oct-20 19:31 35.031701 -113.071666 303 19171ft 304kts
05-Oct-20 19:32 35.083530 -113.165681 303 17534ft 305kts
05-Oct-20 19:33 35.134332 -113.258086 303 15917ft 304kts
05-Oct-20 19:34 35.184285 -113.349185 303 14311ft 300kts
05-Oct-20 19:35 35.234026 -113.440134 303 12685ft 297kts
05-Oct-20 19:36 35.284404 -113.528691 317 11067ft 296kts
05-Oct-20 19:37 35.341711 -113.597332 315 9774ft 248kts
05-Oct-20 19:38 35.391741 -113.657884 315 8695ft 233kts
05-Oct-20 19:39 35.431696 -113.715766 268 7188ft 206kts
05-Oct-20 19:40 35.401578 -113.764495 224 7149ft 169kts
05-Oct-20 19:41 35.365107 -113.809231 224 6218ft 183kts
05-Oct-20 19:42 35.337106 -113.843517 225 5475ft 107kts
05-Oct-20 19:43 35.315699 -113.869713 225 4858ft 105kts
05-Oct-20 19:44 35.294537 -113.896010 224 4182ft 102kts
05-Oct-20 19:45 35.273558 -113.921197 224 3680ft 96kts
05-Oct-20 19:46 35.259124 -113.938763 224 3401ft 22kts
05-Oct-20 19:47 35.258231 -113.943771 315 3392ft 21kts
05-Oct-20 19:48 35.258512 -113.943597 134 3391ft 0kts

Navigation Log

Ident Type
Flight plan parsing failed, navigation log unavailable